Nearby METAR Reports

This page may be slow to load as it queries the National Weather Service for data.

KBIS - Bismarck, North Dakota, USA
Distance from station: S 10mi, 15km
Updated: Sun, 05-Apr-2020 5:52pm CDT
Overcast
Overcast
 Wind from E
Wind: E 17 mph , 28 km/h
Temperature: 43°F , 6°C
Wind Chill: 35°F , 2°C
Dew Point: 32°F , 0°C
Humidity: 66%
Barometer: 29.81 inHg , 1009.5 hPa
Clouds: Overcast
Visibility: 10 miles , 16 km
Cloud details: Overcast 11000 ft
2020/04/05 22:52 KBIS 052252Z 08015KT 10SM OVC110 06/00 A2981 RMK AO2 SLP113 T00610000
KDIK - Dickinson, North Dakota, USA
Distance from station: W 95mi, 154km
Updated: Sun, 05-Apr-2020 5:56pm CDT
Few Clouds
Few Clouds
 Wind from E
Wind: E 16 mph , 26 km/h
Temperature: 46°F , 8°C
Wind Chill: 39°F , 4°C
Dew Point: 28°F , -2°C
Humidity: 50%
Barometer: 29.72 inHg , 1006.4 hPa
Clouds: Few Clouds
Visibility: 10 miles , 16 km
Cloud details: Few Clouds 11000 ft
2020/04/05 22:56 KDIK 052256Z AUTO 10014KT 10SM FEW110 08/M02 A2972 RMK AO2 SLP085 T00781022
 
KXWA - Williston, North Dakota, USA
Distance from station: NNW 2mi, 2km
Updated: Sun, 05-Apr-2020 5:51pm CDT
Few Clouds
Few Clouds
 Wind from ESE
Wind: ESE 20 mph , 31 km/h, Gust: 33 mph , 54 km/h
Temperature: 45°F , 7°C
Wind Chill: 37°F , 3°C
Dew Point: 27°F , -3°C
Humidity: 49%
Barometer: 29.78 inHg , 1008.5 hPa
Clouds: Few Clouds
Visibility: 10 miles , 16 km
Cloud details: Few Clouds 11000 ft
2020/04/05 22:51 KXWA 052251Z AUTO 11017G29KT 10SM FEW110 07/M03 A2978 RMK AO2 PK WND 11032/2156 SLP951 T00671028 TSNO
KFAR - Fargo, North Dakota, USA
Distance from station: NNW 4mi, 7km
Updated: Sun, 05-Apr-2020 5:53pm CDT
Mostly cloudy
Mostly cloudy
 Wind from E
Wind: E 7 mph , 11 km/h
Temperature: 43°F , 6°C
Wind Chill: 39°F , 4°C
Dew Point: 34°F , 1°C
Humidity: 71%
Barometer: 29.95 inHg , 1014.2 hPa
Clouds: Mostly cloudy
Visibility: 10 miles , 16 km
Cloud details: Mostly cloudy 12000 ft
2020/04/05 22:53 KFAR 052253Z 08006KT 10SM BKN120 06/01 A2995 RMK AO2 SLP152 T00560006
 
KGFK - Grand Forks, North Dakota, USA
Distance from station: NNW 76mi, 123km
Updated: Sun, 05-Apr-2020 5:53pm CDT
Overcast
Overcast
 Wind from NW
Wind: NW 5 mph , 7 km/h
Temperature: 36°F , 2°C
Wind Chill: 32°F , 0°C
Dew Point: 28°F , -2°C
Humidity: 75%
Barometer: 29.99 inHg , 1015.6 hPa
Clouds: Overcast
Visibility: 10 miles , 16 km
Cloud details: Mostly cloudy 8000 ft
Overcast 10000 ft
2020/04/05 22:53 KGFK 052253Z 32004KT 10SM BKN080 OVC100 02/M02 A2999 RMK AO2 SLP170 T00221017
KMOT - Minot, North Dakota, USA
Distance from station: E 109mi, 175km
Updated: Sun, 05-Apr-2020 5:54pm CDT
Clear
Clear
 Wind from ENE
Wind: ENE 13 mph , 20 km/h
Temperature: 39°F , 4°C
Wind Chill: 31°F , -1°C
Dew Point: 34°F , 1°C
Humidity: 81%
Barometer: 29.87 inHg , 1011.5 hPa
Clouds: Clear
Visibility: 10 miles , 16 km
2020/04/05 22:54 KMOT 052254Z 06011KT 10SM CLR 04/01 A2987 RMK AO2 SLP135 T00440006